Kodiak, AK (99615)

8:55 AM AKST on February 09, 2016 (GMT -0900)
Kodiak College | | Change Station
CLOSE
Current Station
Personal Weather Station
Location: Kodiak, AK
Elevation: 154 ft
Nearby Weather Stations

Elev 154 ft 57.81 °N, 152.37 °W | Updated 4 minutes ago

Light Rain
Light Rain
35.8 °F
Feels Like 36 °F
N
0.0
Wind Variable Wind from North

Today
High -- | Low -- °F
--% Chance of Precip.
Yesterday
High -- | Low -- °F
Precip. -- in
Pressure 29.90 in
Visibility 9.0 miles
Clouds Scattered Clouds 2200 ft
Mostly Cloudy 3400 ft
Windchill 36 °F
Dew Point 35 °F
Humidity 97%
Rainfall 0.02 in
Snow Depth Not available.
8:55 AM 5:53 PM
New Moon, 2% visible
METAR PADQ 091753Z 00000KT 9SM -RA SCT022 BKN034 01/01 A2990 RMK AO2 RAB51SNE51 SLP125 P0000 60000 T00110011 10017 20000 51010 $
Pressure 29.90 in
Visibility 9.0 miles
Clouds Scattered Clouds 2200 ft
Mostly Cloudy 3400 ft
Windchill 36 °F
Dew Point 35 °F
Humidity 97%
Rainfall 0.02 in
Snow Depth Not available.
8:55 AM 5:53 PM
New Moon, 2% visible
METAR PADQ 091753Z 00000KT 9SM -RA SCT022 BKN034 01/01 A2990 RMK AO2 RAB51SNE51 SLP125 P0000 60000 T00110011 10017 20000 51010 $

10-Day Weather Forecast

Almanac

Astronomy

Feb. 09, 2016 Rise Set
Actual Time
Civil Twilight
Nautical Twilight
Astronomical Twilight
Moon
Length of Visible Light
Length of Day
Tomorrow will be .
, % of the Moon is Illuminated

Today's Extremes

State Highs State Lows

Community

WunderPhotos

Upload Photos

1,891,650 photos uploaded!

WunderBlog® & News

Nearby

Air Quality

  Air Quality AQ Index Pollutant
Not available.

Snow Depth

Station Depth Elevation

Earthquake Activity

City Distance Mag. Time & Date
Minimum magnitude displayed is 2.5.

Coastal Water Temperatures

Place Temperature

Stations

Nearby Weather Stations

Station Location Temp. Windchill Dew Point Humidity Wind Precip. Elev Updated Type
                   

Watches & Warnings

There are currently no watches in effect.